Time;durP1;ratioP1;P1;durP2;ratioP2;P2;SDS_P1;SDS_P2;PMS_P1;PMS_P2;Temp;Humidity;BMP_temperature;BMP_pressure;BME280_temperature;BME280_humidity;BME280_pressure;Samples;Min_cycle;Max_cycle;Signal;HPM_P1;HPM_P2
2021/08/05 00:01:35;;;;;;;11.20;7.63;;;15.60;99.90;;;;;;5074800;28;20450;-58
2021/08/05 00:04:02;;;;;;;10.13;6.10;;;15.50;99.90;;;;;;5074595;28;20482;-58
2021/08/05 00:06:29;;;;;;;9.57;7.00;;;15.50;99.90;;;;;;5074630;28;20450;-56
2021/08/05 00:08:58;;;;;;;11.97;8.10;;;15.50;99.90;;;;;;5074912;28;20446;-55
2021/08/05 00:11:25;;;;;;;12.33;8.00;;;15.40;99.90;;;;;;5074504;28;20546;-56
2021/08/05 00:13:52;;;;;;;8.20;5.87;;;15.30;99.90;;;;;;5074167;28;20447;-56
2021/08/05 00:16:19;;;;;;;9.60;6.40;;;15.10;99.90;;;;;;5074433;28;20500;-55
2021/08/05 00:18:46;;;;;;;9.77;5.90;;;15.20;99.90;;;;;;5074518;28;20494;-55
2021/08/05 00:21:15;;;;;;;9.73;5.90;;;15.20;99.90;;;;;;5069448;28;20466;-55
2021/08/05 00:23:42;;;;;;;8.63;5.70;;;15.20;99.90;;;;;;5074185;28;20443;-55
2021/08/05 00:26:11;;;;;;;8.93;5.57;;;15.20;99.90;;;;;;5074222;28;20451;-56
2021/08/05 00:28:38;;;;;;;8.00;5.40;;;15.20;99.90;;;;;;5074334;28;20459;-55
2021/08/05 00:31:05;;;;;;;9.83;6.10;;;15.20;99.90;;;;;;5074325;28;20486;-55
2021/08/05 00:33:33;;;;;;;9.60;6.03;;;15.20;99.90;;;;;;5073960;28;20507;-55
2021/08/05 00:36:00;;;;;;;7.23;5.47;;;15.30;99.90;;;;;;5074669;28;20909;-56
2021/08/05 00:38:27;;;;;;;9.27;5.97;;;15.30;99.90;;;;;;5077838;28;20470;-55
2021/08/05 00:40:54;;;;;;;7.37;5.30;;;15.30;99.90;;;;;;5074259;28;20443;-55
2021/08/05 00:43:22;;;;;;;7.17;5.00;;;15.30;99.90;;;;;;5073984;28;20884;-55
2021/08/05 00:45:50;;;;;;;10.07;6.07;;;15.30;99.90;;;;;;5074171;28;20451;-55
2021/08/05 00:48:17;;;;;;;9.40;5.00;;;15.30;99.90;;;;;;5073866;28;21011;-55
2021/08/05 00:50:44;;;;;;;6.50;4.90;;;15.50;99.90;;;;;;5065421;28;20938;-55
2021/08/05 00:53:11;;;;;;;9.87;5.97;;;15.30;99.90;;;;;;5073634;28;20450;-55
2021/08/05 00:55:38;;;;;;;7.97;5.87;;;15.30;99.90;;;;;;5073772;28;20990;-55
2021/08/05 00:58:05;;;;;;;8.77;6.10;;;15.20;99.90;;;;;;5073561;28;20547;-55
2021/08/05 01:00:34;;;;;;;8.03;5.60;;;15.10;99.90;;;;;;5073654;28;20457;-55
2021/08/05 01:03:09;;;;;;;9.80;6.70;;;15.10;99.90;;;;;;5073691;28;20447;-55
2021/08/05 01:05:41;;;;;;;7.70;5.30;;;15.00;99.90;;;;;;5073189;28;20438;-55
2021/08/05 01:08:11;;;;;;;5.60;4.40;;;15.00;99.90;;;;;;5073350;28;20479;-55
2021/08/05 01:10:46;;;;;;;4.77;3.97;;;14.90;99.90;;;;;;5073517;28;20447;-55
2021/08/05 01:13:18;;;;;;;4.30;2.73;;;14.90;99.90;;;;;;5073213;28;20488;-55
2021/08/05 01:15:51;;;;;;;2.63;2.43;;;14.90;99.90;;;;;;5073385;28;20446;-55
2021/08/05 01:18:24;;;;;;;2.37;2.17;;;15.10;99.90;;;;;;5073124;28;21065;-55
2021/08/05 01:20:52;;;;;;;3.53;1.90;;;15.20;99.90;;;;;;5073002;28;20443;-55
2021/08/05 01:23:28;;;;;;;2.27;1.40;;;15.20;99.90;;;;;;5072028;28;20443;-55
2021/08/05 01:26:00;;;;;;;2.30;1.63;;;15.00;99.90;;;;;;5066898;28;20451;-55
2021/08/05 01:28:28;;;;;;;1.40;1.30;;;14.90;99.90;;;;;;5053127;28;20893;-55
2021/08/05 01:30:58;;;;;;;1.70;1.60;;;14.90;99.90;;;;;;5087457;28;20504;-56
2021/08/05 01:33:27;;;;;;;1.70;1.60;;;14.70;99.90;;;;;;5072889;28;20454;-55
2021/08/05 01:35:56;;;;;;;2.03;1.63;;;14.70;99.90;;;;;;5072889;28;20780;-56
2021/08/05 01:38:24;;;;;;;1.40;1.30;;;14.70;99.90;;;;;;5072429;28;20474;-56
2021/08/05 01:40:54;;;;;;;1.50;1.40;;;14.70;99.90;;;;;;5073157;28;20443;-56
2021/08/05 01:43:22;;;;;;;1.40;1.30;;;14.80;99.90;;;;;;5072592;28;20446;-55
2021/08/05 01:45:51;;;;;;;1.60;1.43;;;14.90;99.90;;;;;;5072616;28;20886;-56
2021/08/05 01:48:20;;;;;;;1.40;1.30;;;14.90;99.90;;;;;;5066553;28;20471;-56
2021/08/05 01:50:50;;;;;;;2.27;1.10;;;14.90;99.90;;;;;;5072662;28;21011;-56
2021/08/05 01:53:19;;;;;;;1.57;1.47;;;14.90;99.90;;;;;;5072664;28;20933;-56
2021/08/05 01:55:47;;;;;;;1.50;1.40;;;14.80;99.90;;;;;;5080024;28;20446;-56
2021/08/05 01:58:15;;;;;;;1.70;1.60;;;14.80;99.90;;;;;;5092198;28;20519;-56
2021/08/05 02:00:42;;;;;;;1.60;1.50;;;14.70;99.90;;;;;;5073583;28;20813;-57
2021/08/05 02:03:11;;;;;;;2.60;1.60;;;14.60;99.90;;;;;;5072326;28;20493;-58
2021/08/05 02:05:44;;;;;;;1.60;1.40;;;14.50;99.90;;;;;;5078693;28;20523;-58
2021/08/05 02:08:14;;;;;;;1.73;1.40;;;14.50;99.90;;;;;;5092840;28;20556;-58
2021/08/05 02:10:44;;;;;;;1.33;1.23;;;14.40;99.90;;;;;;5092472;28;21017;-57
2021/08/05 02:13:14;;;;;;;1.77;1.67;;;14.40;99.90;;;;;;5082498;28;20482;-57
2021/08/05 02:15:47;;;;;;;1.57;1.47;;;14.60;99.90;;;;;;5072880;28;20455;-58
2021/08/05 02:18:15;;;;;;;1.43;1.33;;;14.70;99.90;;;;;;5072247;28;20474;-58
2021/08/05 02:20:43;;;;;;;1.60;1.50;;;14.60;99.90;;;;;;5072014;28;20989;-57
2021/08/05 02:23:11;;;;;;;1.67;1.30;;;14.60;99.90;;;;;;5071997;28;20443;-57
2021/08/05 02:25:40;;;;;;;2.37;1.43;;;14.70;99.90;;;;;;5078438;28;20510;-58
2021/08/05 02:28:07;;;;;;;1.20;1.10;;;14.70;99.90;;;;;;5071933;28;20895;-58
2021/08/05 02:30:35;;;;;;;3.00;1.57;;;14.70;99.90;;;;;;5072148;28;20505;-58
2021/08/05 02:33:03;;;;;;;3.47;1.60;;;14.70;99.90;;;;;;5071699;28;21003;-57
2021/08/05 02:35:34;;;;;;;1.60;1.50;;;14.70;99.90;;;;;;5072050;28;20508;-58
2021/08/05 02:38:01;;;;;;;1.33;1.23;;;14.70;99.90;;;;;;5071819;28;20532;-58
2021/08/05 02:40:29;;;;;;;1.60;1.50;;;14.70;99.90;;;;;;5071467;28;20457;-57
2021/08/05 02:42:57;;;;;;;1.70;1.60;;;14.70;99.90;;;;;;5071755;28;20446;-57
2021/08/05 02:45:24;;;;;;;1.50;1.40;;;14.70;99.90;;;;;;5071846;28;20442;-58
2021/08/05 02:47:51;;;;;;;1.73;1.63;;;14.80;99.90;;;;;;5071694;28;20890;-58
2021/08/05 02:50:19;;;;;;;2.67;1.43;;;14.90;99.90;;;;;;5071871;28;20446;-56
2021/08/05 02:52:48;;;;;;;3.00;1.40;;;14.90;99.90;;;;;;5071494;28;20528;-56
2021/08/05 02:55:15;;;;;;;1.30;1.17;;;15.00;99.90;;;;;;5071897;28;20446;-56
2021/08/05 02:57:43;;;;;;;1.43;1.33;;;15.00;99.90;;;;;;5091825;28;20816;-56
2021/08/05 03:00:11;;;;;;;1.47;1.20;;;15.00;99.90;;;;;;5074403;28;20542;-58
2021/08/05 03:02:40;;;;;;;1.70;1.40;;;15.10;99.90;;;;;;5071686;28;20443;-57
2021/08/05 03:05:10;;;;;;;2.20;1.50;;;15.00;99.90;;;;;;5070927;28;20875;-57
2021/08/05 03:07:37;;;;;;;2.03;1.40;;;15.00;99.90;;;;;;5071365;28;20561;-58
2021/08/05 03:10:08;;;;;;;2.30;1.40;;;15.10;99.90;;;;;;5071225;28;20454;-58
2021/08/05 03:12:35;;;;;;;2.60;1.87;;;15.10;99.90;;;;;;5075065;28;21018;-58
2021/08/05 03:15:03;;;;;;;2.13;1.80;;;15.10;99.90;;;;;;5075724;28;20504;-57
2021/08/05 03:17:30;;;;;;;2.37;1.80;;;15.10;99.90;;;;;;5075614;28;20880;-58
2021/08/05 03:19:57;;;;;;;2.63;1.73;;;15.10;99.90;;;;;;5075653;28;20450;-58
2021/08/05 03:22:24;;;;;;;2.00;1.63;;;15.10;99.90;;;;;;5075145;28;20442;-58
2021/08/05 03:24:51;;;;;;;1.83;1.73;;;15.30;99.90;;;;;;5075510;28;20453;-58
2021/08/05 03:27:20;;;;;;;2.10;1.90;;;15.20;99.90;;;;;;5094797;22;20499;-54
2021/08/05 03:29:48;;;;;;;2.40;1.70;;;15.20;99.90;;;;;;5059571;28;20452;-52
2021/08/05 03:32:16;;;;;;;1.80;1.70;;;15.20;99.90;;;;;;5055024;28;20479;-53
2021/08/05 03:34:43;;;;;;;2.40;2.20;;;15.10;99.90;;;;;;5055124;28;20448;-52
2021/08/05 03:37:10;;;;;;;3.47;2.43;;;15.00;99.90;;;;;;5055242;28;20510;-53
2021/08/05 03:39:37;;;;;;;2.30;2.07;;;14.90;99.90;;;;;;5073607;28;20453;-53
2021/08/05 03:42:04;;;;;;;2.23;2.03;;;14.80;99.90;;;;;;5075101;28;20446;-52
2021/08/05 03:44:33;;;;;;;2.73;2.20;;;14.80;99.90;;;;;;5075110;28;20446;-52
2021/08/05 03:47:00;;;;;;;2.60;2.17;;;14.80;99.90;;;;;;5074940;28;20454;-53
2021/08/05 03:49:27;;;;;;;2.00;1.90;;;14.70;99.90;;;;;;5074886;28;20885;-52
2021/08/05 03:51:54;;;;;;;2.90;2.60;;;14.60;99.90;;;;;;5066907;28;20937;-53
2021/08/05 03:54:21;;;;;;;2.57;2.30;;;14.60;99.90;;;;;;5055184;28;20455;-52
2021/08/05 03:56:48;;;;;;;2.90;2.53;;;14.70;99.90;;;;;;5054611;28;20501;-53
2021/08/05 03:59:15;;;;;;;3.00;2.70;;;14.60;99.90;;;;;;5054289;28;20455;-53
2021/08/05 04:01:43;;;;;;;3.00;2.70;;;14.50;99.90;;;;;;5054687;28;20591;-54
2021/08/05 04:04:10;;;;;;;4.73;2.83;;;14.60;99.90;;;;;;5053557;28;20452;-52
2021/08/05 04:06:37;;;;;;;3.30;2.73;;;14.70;99.90;;;;;;5058591;28;20493;-52
2021/08/05 04:09:05;;;;;;;4.90;3.40;;;14.70;99.90;;;;;;5053562;28;20471;-53
2021/08/05 04:11:32;;;;;;;2.63;2.43;;;14.70;99.90;;;;;;5055848;28;20451;-52
2021/08/05 04:13:59;;;;;;;4.07;2.67;;;14.80;99.90;;;;;;5054202;28;20540;-53
2021/08/05 04:16:26;;;;;;;2.67;2.40;;;14.90;99.90;;;;;;5054571;28;20501;-52
2021/08/05 04:18:54;;;;;;;2.80;2.43;;;14.80;99.90;;;;;;5054514;28;20528;-53
2021/08/05 04:21:21;;;;;;;2.90;2.60;;;14.80;99.90;;;;;;5053976;28;21016;-54
2021/08/05 04:23:48;;;;;;;4.77;2.30;;;14.70;99.90;;;;;;5054153;28;20448;-52
2021/08/05 04:26:15;;;;;;;3.30;2.60;;;14.80;99.90;;;;;;5041690;28;20448;-52
2021/08/05 04:28:42;;;;;;;3.10;2.47;;;14.80;99.90;;;;;;5052478;28;20505;-53
2021/08/05 04:31:09;;;;;;;3.53;2.63;;;14.80;99.90;;;;;;5053878;28;20893;-53
2021/08/05 04:33:36;;;;;;;2.90;2.50;;;14.70;99.90;;;;;;5053936;28;20483;-52
2021/08/05 04:36:05;;;;;;;2.80;2.40;;;14.80;99.90;;;;;;5053492;28;20452;-53
2021/08/05 04:38:32;;;;;;;2.90;2.23;;;14.90;99.90;;;;;;5053133;28;20474;-52
2021/08/05 04:40:59;;;;;;;3.10;2.57;;;15.00;99.90;;;;;;5060781;28;20559;-53
2021/08/05 04:43:26;;;;;;;2.80;2.60;;;15.00;99.90;;;;;;5055411;28;20494;-52
2021/08/05 04:45:53;;;;;;;2.60;2.40;;;15.10;99.90;;;;;;5053978;28;20447;-53
2021/08/05 04:48:20;;;;;;;2.83;2.20;;;15.20;99.90;;;;;;5053837;28;20467;-53
2021/08/05 04:50:47;;;;;;;2.83;2.53;;;15.30;99.90;;;;;;5053569;28;20452;-54
2021/08/05 04:53:17;;;;;;;3.17;2.73;;;15.20;99.90;;;;;;5048203;28;21004;-53
2021/08/05 04:55:45;;;;;;;2.97;2.77;;;15.20;99.90;;;;;;5036302;28;20887;-53
2021/08/05 04:58:12;;;;;;;2.93;2.63;;;15.10;99.90;;;;;;5053480;28;20510;-52
2021/08/05 05:00:41;;;;;;;2.87;2.53;;;15.10;99.90;;;;;;5053531;28;20448;-53
2021/08/05 05:03:09;;;;;;;2.40;2.20;;;15.10;99.90;;;;;;5053107;28;20452;-53
2021/08/05 05:05:37;;;;;;;3.13;2.83;;;15.10;99.90;;;;;;5053347;28;20494;-52
2021/08/05 05:08:18;;;;;;;3.70;2.70;;;15.20;99.90;;;;;;5045040;28;20475;-53
2021/08/05 05:10:45;;;;;;;2.80;2.50;;;15.20;99.90;;;;;;5053477;28;20447;-53
2021/08/05 05:13:13;;;;;;;3.10;2.80;;;15.20;99.90;;;;;;5053011;28;20936;-53
2021/08/05 05:15:40;;;;;;;3.70;3.20;;;15.30;99.90;;;;;;5053123;28;20526;-54
2021/08/05 05:18:08;;;;;;;3.50;2.93;;;15.30;99.90;;;;;;5053320;28;20471;-53
2021/08/05 05:20:35;;;;;;;4.70;3.00;;;15.10;99.90;;;;;;5052837;28;20517;-52
2021/08/05 05:23:03;;;;;;;5.30;3.00;;;15.20;99.90;;;;;;5052896;28;20495;-53
2021/08/05 05:25:32;;;;;;;3.93;2.80;;;15.30;99.90;;;;;;5052855;28;20452;-53
2021/08/05 05:27:59;;;;;;;4.83;3.03;;;15.40;99.90;;;;;;5052959;28;20550;-52
2021/08/05 05:30:26;;;;;;;3.40;2.90;;;15.50;99.90;;;;;;5052900;28;20447;-53
2021/08/05 05:32:53;;;;;;;3.53;2.77;;;15.50;99.90;;;;;;5061576;28;21015;-52
2021/08/05 05:35:21;;;;;;;4.20;3.43;;;15.60;99.90;;;;;;5052865;28;20481;-54
2021/08/05 05:37:53;;;;;;;4.23;3.10;;;15.60;99.90;;;;;;5052666;28;20480;-53
2021/08/05 05:40:20;;;;;;;4.50;3.07;;;15.70;99.90;;;;;;5052711;28;20987;-53
2021/08/05 05:42:48;;;;;;;3.80;3.40;;;15.60;99.90;;;;;;5052463;28;20444;-51
2021/08/05 05:45:18;;;;;;;4.53;3.70;;;15.30;99.90;;;;;;5052672;28;21004;-52
2021/08/05 05:47:45;;;;;;;4.40;3.40;;;15.20;99.90;;;;;;5052368;28;20993;-51
2021/08/05 05:50:13;;;;;;;5.33;3.30;;;15.10;99.90;;;;;;5052173;28;20865;-52
2021/08/05 05:52:41;;;;;;;4.80;3.63;;;15.10;99.90;;;;;;5052138;28;20483;-52
2021/08/05 05:55:09;;;;;;;4.20;3.67;;;15.00;99.90;;;;;;5052404;28;20459;-51
2021/08/05 05:57:37;;;;;;;4.07;3.50;;;15.00;99.90;;;;;;5052550;28;20471;-52
2021/08/05 06:00:06;;;;;;;6.30;3.50;;;15.00;99.90;;;;;;5052664;28;20502;-52
2021/08/05 06:02:33;;;;;;;4.20;3.30;;;15.00;99.90;;;;;;5052262;28;21015;-52
2021/08/05 06:05:00;;;;;;;4.37;3.40;;;15.20;99.90;;;;;;5051756;28;20451;-52
2021/08/05 06:07:27;;;;;;;4.70;3.50;;;15.30;99.90;;;;;;5052212;28;20468;-50
2021/08/05 06:09:55;;;;;;;6.50;4.00;;;15.20;99.90;;;;;;5052415;28;20505;-51
2021/08/05 06:12:22;;;;;;;5.57;3.57;;;15.20;99.90;;;;;;5051926;28;20493;-51
2021/08/05 06:14:49;;;;;;;3.87;3.47;;;15.40;99.90;;;;;;5047253;28;21212;-51
2021/08/05 06:17:18;;;;;;;7.77;3.50;;;15.50;99.90;;;;;;5051916;28;20996;-51
2021/08/05 06:19:45;;;;;;;4.40;3.33;;;15.60;99.90;;;;;;5051671;28;20456;-52
2021/08/05 06:22:14;;;;;;;3.30;2.57;;;15.70;99.90;;;;;;5051760;28;20452;-51
2021/08/05 06:24:41;;;;;;;4.40;2.80;;;15.70;99.90;;;;;;5052137;28;20447;-52
2021/08/05 06:27:08;;;;;;;3.33;2.90;;;15.80;99.90;;;;;;5051764;28;20483;-52
2021/08/05 06:29:35;;;;;;;2.80;2.60;;;15.90;99.90;;;;;;5051948;28;20502;-52
2021/08/05 06:32:03;;;;;;;9.33;4.10;;;15.90;99.90;;;;;;5051423;28;20481;-52
2021/08/05 06:34:31;;;;;;;24.60;13.50;;;16.00;99.90;;;;;;5051562;28;20486;-51
2021/08/05 06:36:58;;;;;;;17.20;11.73;;;16.00;99.90;;;;;;5051650;28;20444;-53
2021/08/05 06:39:25;;;;;;;8.07;6.60;;;16.10;99.90;;;;;;5051966;28;20448;-52
2021/08/05 06:41:52;;;;;;;5.37;4.00;;;16.30;99.90;;;;;;5051610;28;20837;-51
2021/08/05 06:44:19;;;;;;;3.67;3.30;;;16.40;99.90;;;;;;5051633;28;20447;-51
2021/08/05 06:46:46;;;;;;;3.50;3.20;;;16.50;99.90;;;;;;5051298;28;20832;-51
2021/08/05 06:49:13;;;;;;;3.20;2.90;;;16.60;99.90;;;;;;5051601;28;20507;-52
2021/08/05 06:51:41;;;;;;;3.13;2.83;;;16.70;99.90;;;;;;5051852;28;20451;-52
2021/08/05 06:54:08;;;;;;;4.03;2.90;;;16.90;99.90;;;;;;5051549;28;20479;-53
2021/08/05 06:56:35;;;;;;;3.00;2.70;;;16.90;99.90;;;;;;5051626;28;20505;-52
2021/08/05 06:59:02;;;;;;;2.20;2.00;;;16.90;99.90;;;;;;5051566;28;20474;-52
2021/08/05 07:01:29;;;;;;;2.80;2.40;;;17.10;99.90;;;;;;5051181;28;20447;-53
2021/08/05 07:03:58;;;;;;;2.83;2.53;;;17.10;99.90;;;;;;5051368;28;20498;-52
2021/08/05 07:06:25;;;;;;;2.47;2.27;;;17.10;99.90;;;;;;5051410;28;20456;-53
2021/08/05 07:08:53;;;;;;;2.33;2.03;;;17.20;99.90;;;;;;5051497;28;20528;-52
2021/08/05 07:11:20;;;;;;;2.87;2.10;;;17.20;99.90;;;;;;5051396;28;20459;-52
2021/08/05 07:13:47;;;;;;;2.80;2.60;;;17.10;99.90;;;;;;5051276;28;20557;-52
2021/08/05 07:16:14;;;;;;;2.90;2.60;;;17.10;99.90;;;;;;5051149;28;20498;-52
2021/08/05 07:18:41;;;;;;;2.17;1.97;;;17.10;99.90;;;;;;5051387;28;20525;-51
2021/08/05 07:21:08;;;;;;;2.90;2.43;;;17.20;99.90;;;;;;5050639;28;20452;-52
2021/08/05 07:23:35;;;;;;;2.73;2.50;;;17.30;99.90;;;;;;5051046;28;20517;-52
2021/08/05 07:26:03;;;;;;;2.20;2.00;;;17.30;99.90;;;;;;5049182;28;21016;-51
2021/08/05 07:28:30;;;;;;;2.63;2.43;;;17.00;99.90;;;;;;5050818;28;20475;-51
2021/08/05 07:30:58;;;;;;;3.70;2.70;;;16.90;99.90;;;;;;5058679;28;20500;-54
2021/08/05 07:33:25;;;;;;;3.50;2.97;;;17.10;99.90;;;;;;5057154;28;20483;-53
2021/08/05 07:35:52;;;;;;;3.53;2.83;;;17.20;99.90;;;;;;5050384;28;20517;-52
2021/08/05 07:38:19;;;;;;;4.23;2.97;;;17.30;99.90;;;;;;5046427;28;20514;-54
2021/08/05 07:40:47;;;;;;;3.47;3.17;;;17.50;99.90;;;;;;5050986;28;20494;-53
2021/08/05 07:43:15;;;;;;;4.60;3.40;;;17.50;99.90;;;;;;5050182;28;20523;-54
2021/08/05 07:45:42;;;;;;;4.90;3.30;;;17.50;99.90;;;;;;5048733;28;20506;-52
2021/08/05 07:48:09;;;;;;;4.00;3.23;;;17.60;99.90;;;;;;5050277;28;20464;-53
2021/08/05 07:50:36;;;;;;;4.90;3.47;;;17.70;99.90;;;;;;5051095;28;20448;-54
2021/08/05 07:53:03;;;;;;;4.30;3.90;;;17.80;99.90;;;;;;5045245;28;20873;-52
2021/08/05 07:55:31;;;;;;;4.03;3.53;;;17.90;99.90;;;;;;5051348;28;20534;-53
2021/08/05 07:57:57;;;;;;;4.03;3.63;;;17.90;99.90;;;;;;5054285;28;20502;-52
2021/08/05 08:00:26;;;;;;;3.87;3.47;;;17.80;99.90;;;;;;5054906;28;20439;-52
2021/08/05 08:02:53;;;;;;;4.40;3.70;;;17.80;99.90;;;;;;5058851;28;20485;-52
2021/08/05 08:05:20;;;;;;;3.90;3.50;;;17.70;99.90;;;;;;5074560;28;20442;-51
2021/08/05 08:07:47;;;;;;;3.53;2.80;;;17.80;99.90;;;;;;5074711;28;20516;-52
2021/08/05 08:10:14;;;;;;;4.40;3.60;;;17.80;99.90;;;;;;5055320;28;20456;-54
2021/08/05 08:12:41;;;;;;;4.63;3.33;;;17.90;99.90;;;;;;5055218;28;20509;-53
2021/08/05 08:15:09;;;;;;;3.50;3.20;;;18.20;99.90;;;;;;5054290;28;20848;-54
2021/08/05 08:17:38;;;;;;;4.03;3.20;;;18.50;99.90;;;;;;5054482;28;20525;-54
2021/08/05 08:20:09;;;;;;;3.93;3.43;;;18.80;99.90;;;;;;5054161;28;20514;-53
2021/08/05 08:22:36;;;;;;;3.60;3.23;;;19.30;99.90;;;;;;5055633;28;20968;-52
2021/08/05 08:25:03;;;;;;;4.80;3.27;;;20.00;99.90;;;;;;5055144;28;20450;-52
2021/08/05 08:27:31;;;;;;;3.13;2.80;;;20.60;99.90;;;;;;5053238;28;20475;-52
2021/08/05 08:29:58;;;;;;;3.83;3.37;;;21.00;99.90;;;;;;5046101;28;20964;-52
2021/08/05 08:32:25;;;;;;;3.40;3.10;;;21.20;99.90;;;;;;5048037;28;20957;-52
2021/08/05 08:34:53;;;;;;;4.20;2.93;;;21.40;99.90;;;;;;5043807;28;20487;-52
2021/08/05 08:37:20;;;;;;;3.20;2.83;;;21.70;99.90;;;;;;5051616;28;20533;-53
2021/08/05 08:39:47;;;;;;;3.60;2.80;;;22.20;99.90;;;;;;5053567;28;20451;-52
2021/08/05 08:42:16;;;;;;;2.50;2.30;;;22.40;99.90;;;;;;5049527;28;20882;-52
2021/08/05 08:44:43;;;;;;;5.50;3.00;;;22.80;99.90;;;;;;5049067;28;20962;-52
2021/08/05 08:47:12;;;;;;;2.30;2.17;;;22.50;99.90;;;;;;5052237;28;20975;-54
2021/08/05 08:49:42;;;;;;;3.17;2.40;;;22.20;99.90;;;;;;5029969;28;20468;-51
2021/08/05 08:52:15;;;;;;;2.30;2.10;;;22.50;99.90;;;;;;5028171;28;20460;-52
2021/08/05 08:54:46;;;;;;;2.00;1.90;;;22.60;99.90;;;;;;5039863;28;20549;-52
2021/08/05 08:57:16;;;;;;;2.60;2.40;;;22.70;99.90;;;;;;5050765;28;20484;-52
2021/08/05 08:59:45;;;;;;;2.70;2.30;;;22.60;99.90;;;;;;5052109;28;20473;-52
2021/08/05 09:02:13;;;;;;;2.30;2.10;;;22.80;99.90;;;;;;5049334;28;20467;-52
2021/08/05 09:04:40;;;;;;;2.40;2.20;;;22.60;99.90;;;;;;5045379;28;21210;-52
2021/08/05 09:07:08;;;;;;;2.83;2.40;;;22.60;99.90;;;;;;5044575;28;20479;-53
2021/08/05 09:09:36;;;;;;;2.80;2.30;;;22.70;99.90;;;;;;5047824;28;20467;-53
2021/08/05 09:12:03;;;;;;;3.17;2.87;;;22.80;99.90;;;;;;5043042;28;20497;-52
2021/08/05 09:14:47;;;;;;;2.40;2.20;;;22.60;99.90;;;;;;5044491;28;20483;-52
2021/08/05 09:17:23;;;;;;;2.77;2.57;;;22.70;99.90;;;;;;5041652;28;20487;-52
2021/08/05 09:19:52;;;;;;;2.27;2.00;;;23.00;99.90;;;;;;5044474;28;20456;-51
2021/08/05 09:22:36;;;;;;;2.43;2.20;;;22.90;99.90;;;;;;5042942;28;21041;-52
2021/08/05 09:25:24;;;;;;;2.10;1.90;;;23.00;99.90;;;;;;5042471;28;20468;-52
2021/08/05 09:27:53;;;;;;;1.70;1.60;;;22.40;99.90;;;;;;5042359;28;20909;-52
2021/08/05 09:30:34;;;;;;;2.10;1.77;;;22.40;99.90;;;;;;5071519;22;20506;-58
2021/08/05 09:33:07;;;;;;;1.63;1.53;;;22.80;99.90;;;;;;5041461;28;20507;-58
2021/08/05 09:35:35;;;;;;;2.10;1.90;;;23.40;99.90;;;;;;5044026;28;20536;-57
2021/08/05 09:38:20;;;;;;;2.00;1.80;;;23.70;99.90;;;;;;5047149;28;20468;-57
2021/08/05 09:40:53;;;;;;;1.60;1.50;;;23.60;99.90;;;;;;5028681;28;20476;-57
2021/08/05 09:43:28;;;;;;;1.50;1.40;;;23.40;99.90;;;;;;5028849;28;20522;-57
2021/08/05 09:45:56;;;;;;;1.83;1.43;;;23.30;99.90;;;;;;5026065;28;22315;-57
2021/08/05 09:48:41;;;;;;;1.47;1.37;;;22.70;99.90;;;;;;5034816;28;20538;-57
2021/08/05 09:51:14;;;;;;;1.67;1.20;;;21.60;99.90;;;;;;5037817;28;20883;-57
2021/08/05 09:53:54;;;;;;;1.50;1.30;;;21.50;99.90;;;;;;5034247;28;20517;-58
2021/08/05 09:56:23;;;;;;;1.70;1.60;;;21.60;99.90;;;;;;5029390;28;20523;-59
2021/08/05 09:58:50;;;;;;;1.40;1.30;;;21.50;99.90;;;;;;5035345;28;20487;-59
2021/08/05 10:01:18;;;;;;;1.77;1.40;;;21.30;99.90;;;;;;5036428;28;20476;-57
2021/08/05 10:03:45;;;;;;;1.10;1.00;;;21.30;99.90;;;;;;5034657;28;20529;-58
2021/08/05 10:06:12;;;;;;;1.70;1.07;;;21.30;99.90;;;;;;5031647;28;20527;-59
2021/08/05 10:08:40;;;;;;;1.20;1.10;;;21.10;99.90;;;;;;5031243;28;20817;-60
2021/08/05 10:11:09;;;;;;;2.20;1.20;;;21.30;99.90;;;;;;5035894;28;20481;-56
2021/08/05 10:13:40;;;;;;;2.63;1.93;;;21.50;99.90;;;;;;5021724;28;20892;-58
2021/08/05 10:16:09;;;;;;;1.83;1.73;;;21.80;99.90;;;;;;5017729;28;20931;-58
2021/08/05 10:18:38;;;;;;;2.30;2.10;;;22.00;99.90;;;;;;5032318;28;20488;-57
2021/08/05 10:21:07;;;;;;;2.40;1.90;;;22.70;99.90;;;;;;5035735;28;20522;-58
2021/08/05 10:23:36;;;;;;;2.53;1.43;;;23.40;99.90;;;;;;5030414;28;20452;-57
2021/08/05 10:26:05;;;;;;;1.30;1.20;;;23.80;99.90;;;;;;5028914;28;20457;-57
2021/08/05 10:28:33;;;;;;;1.60;1.50;;;24.10;99.90;;;;;;5034895;28;20893;-57
2021/08/05 10:31:07;;;;;;;1.63;1.53;;;24.30;99.90;;;;;;5038133;28;20456;-57
2021/08/05 10:33:34;;;;;;;1.33;1.23;;;23.90;99.90;;;;;;5032729;28;20954;-57
2021/08/05 10:36:03;;;;;;;2.10;1.33;;;23.90;99.90;;;;;;5024036;28;20547;-57
2021/08/05 10:38:31;;;;;;;1.30;1.20;;;23.80;99.90;;;;;;5033005;28;20498;-57
2021/08/05 10:41:01;;;;;;;1.30;1.20;;;23.70;99.90;;;;;;5035345;28;20956;-57
2021/08/05 10:43:28;;;;;;;1.30;1.20;;;23.60;99.90;;;;;;5031808;28;20468;-56
2021/08/05 10:45:55;;;;;;;1.40;1.30;;;23.30;99.90;;;;;;5030976;28;20448;-57
2021/08/05 10:48:24;;;;;;;1.37;1.23;;;22.90;99.90;;;;;;5031914;28;20526;-57
2021/08/05 10:50:51;;;;;;;1.57;1.10;;;22.60;99.90;;;;;;5031231;28;20476;-57
2021/08/05 10:53:46;;;;;;;1.10;1.10;;;22.50;99.90;;;;;;5030937;28;20456;-57
2021/08/05 10:56:25;;;;;;;1.40;1.30;;;22.40;99.90;;;;;;5028425;28;20481;-58
2021/08/05 10:59:11;;;;;;;1.33;1.23;;;22.70;99.90;;;;;;5028962;28;20259;-57
2021/08/05 11:01:53;;;;;;;2.13;0.90;;;22.60;99.90;;;;;;5031427;28;20444;-57
2021/08/05 11:04:46;;;;;;;1.30;1.20;;;23.10;99.90;;;;;;5030102;28;20531;-57
2021/08/05 11:07:31;;;;;;;1.07;1.07;;;23.30;99.90;;;;;;5029320;28;21011;-57
2021/08/05 11:10:26;;;;;;;1.20;1.10;;;23.70;99.90;;;;;;5029980;28;20483;-57
2021/08/05 11:12:55;;;;;;;1.77;1.37;;;23.80;99.90;;;;;;5025960;28;20445;-57
2021/08/05 11:15:50;;;;;;;1.43;1.20;;;23.90;99.90;;;;;;5029926;28;20496;-56
2021/08/05 11:18:21;;;;;;;2.33;1.10;;;23.60;99.90;;;;;;5031134;28;20453;-56
2021/08/05 11:21:37;;;;;;;1.23;1.17;;;23.40;99.90;;;;;;5030481;28;20459;-56
2021/08/05 11:24:05;;;;;;;1.20;1.10;;;23.00;99.90;;;;;;5029987;28;20473;-57
2021/08/05 11:26:32;;;;;;;1.20;1.10;;;22.60;99.90;;;;;;5030637;28;20476;-57
2021/08/05 11:28:59;;;;;;;1.23;1.13;;;22.40;99.90;;;;;;5030366;28;20476;-56
2021/08/05 11:31:44;;;;;;;1.10;1.00;;;22.20;99.90;;;;;;5031820;28;20456;-57
2021/08/05 11:34:13;;;;;;;1.57;1.47;;;22.00;99.90;;;;;;5034262;28;20507;-57
2021/08/05 11:36:46;;;;;;;1.43;1.33;;;21.80;99.90;;;;;;5022785;28;20539;-57
2021/08/05 11:39:25;;;;;;;1.87;1.50;;;21.40;99.90;;;;;;5034699;28;20836;-57
2021/08/05 11:41:55;;;;;;;1.40;1.30;;;21.60;99.90;;;;;;5034460;28;20456;-58
2021/08/05 11:44:27;;;;;;;1.10;1.00;;;22.00;99.90;;;;;;5034040;28;20454;-56
2021/08/05 11:47:28;;;;;;;0.80;0.80;;;22.30;99.90;;;;;;5034460;28;20845;-57
2021/08/05 11:49:58;;;;;;;1.00;0.93;;;22.80;99.90;;;;;;5029999;28;20476;-57
2021/08/05 11:52:36;;;;;;;1.20;1.10;;;23.40;99.90;;;;;;5034480;28;20507;-57
2021/08/05 11:55:06;;;;;;;0.80;0.80;;;23.80;99.90;;;;;;5034819;28;20488;-57
2021/08/05 11:57:38;;;;;;;1.10;1.00;;;24.10;99.90;;;;;;5034516;28;20565;-57
2021/08/05 12:00:09;;;;;;;0.90;0.90;;;24.30;99.90;;;;;;5034455;28;20468;-57
2021/08/05 12:02:36;;;;;;;0.80;0.80;;;24.00;99.90;;;;;;5033900;28;21155;-57
2021/08/05 12:05:04;;;;;;;1.63;0.80;;;24.00;99.90;;;;;;5034141;28;20803;-57
2021/08/05 12:07:34;;;;;;;1.00;0.70;;;24.00;99.90;;;;;;5033649;28;20889;-57
2021/08/05 12:10:15;;;;;;;1.27;0.80;;;24.00;99.90;;;;;;5034268;28;20479;-57
2021/08/05 12:12:44;;;;;;;1.10;0.90;;;23.70;99.90;;;;;;5033574;28;20522;-57
2021/08/05 12:15:15;;;;;;;0.80;0.70;;;23.50;99.90;;;;;;5033662;28;20479;-57
2021/08/05 12:17:48;;;;;;;0.80;0.80;;;23.60;99.90;;;;;;5033452;28;20456;-58
2021/08/05 12:20:18;;;;;;;0.77;0.77;;;23.60;99.90;;;;;;5033718;28;20473;-58
2021/08/05 12:22:49;;;;;;;0.87;0.87;;;23.40;99.90;;;;;;5033130;28;20449;-58
2021/08/05 12:25:31;;;;;;;0.90;0.70;;;23.30;99.90;;;;;;5034130;28;20445;-58
2021/08/05 12:28:01;;;;;;;0.80;0.73;;;23.40;99.90;;;;;;5051721;28;20447;-58
2021/08/05 12:30:38;;;;;;;1.00;0.90;;;23.40;99.90;;;;;;5034190;28;20485;-57
2021/08/05 12:33:08;;;;;;;0.90;0.80;;;23.60;99.90;;;;;;5033159;28;20854;-58
2021/08/05 12:35:36;;;;;;;1.37;0.87;;;23.70;99.90;;;;;;5033995;28;20480;-58
2021/08/05 12:38:07;;;;;;;2.30;1.10;;;23.60;99.90;;;;;;5022822;28;20448;-58
2021/08/05 12:40:38;;;;;;;1.10;0.90;;;23.60;99.90;;;;;;5033222;28;21904;-58
2021/08/05 12:43:07;;;;;;;0.80;0.80;;;23.60;99.90;;;;;;5032564;28;20456;-57
2021/08/05 12:45:36;;;;;;;0.70;0.70;;;23.50;99.90;;;;;;5033158;28;20453;-57
2021/08/05 12:48:05;;;;;;;1.00;0.90;;;23.40;99.90;;;;;;5033036;28;20452;-57
2021/08/05 12:50:36;;;;;;;1.20;1.00;;;23.40;99.90;;;;;;5032807;28;20476;-57
2021/08/05 12:53:05;;;;;;;1.00;0.93;;;23.20;99.90;;;;;;5032933;28;20460;-58
2021/08/05 12:55:47;;;;;;;1.20;1.00;;;23.00;99.90;;;;;;5033251;28;20480;-58
2021/08/05 12:58:18;;;;;;;2.17;1.10;;;22.70;99.90;;;;;;5031950;28;20527;-57